Amsterdam, New York
Current Conditions -  °F | °C
As of 4:35 AM on Sunday 23 Nov 2014 (Local Time) from KNY0 Reporting Station
Overcast Overcast  
Wind Chill: 31°   Ceiling: 3300
Heat Index: 37°   Visibility: 7mi
Dew Point: 35°   Wind: 7mph
Humidity: 92%   Direction: 230°SW
Pressure: 30.04"   Gusts: NA
Location:  42.94°N, 74.19°W
Report Text: KNY0 230935Z AUTO 23006KT 7SM BKN033 BKN047 OVC060 03/02 A3004 RMK AO2 T00270015
Loading
Personal Weather Stations






























Interactive Weather Map New forecast layout! Learn more

10-Day Weather Forecast

Advertisements
Track Severe Weather on mobile